sensor_id;sensor_type;location;lat;lon;timestamp;P1;durP1;ratioP1;P2;durP2;ratioP2
66521;SDS011;53349;53.538;8.584;2023-07-22T00:00:08;9.48;;;3.67;;
66521;SDS011;53349;53.538;8.584;2023-07-22T00:02:36;8.30;;;3.28;;
66521;SDS011;53349;53.538;8.584;2023-07-22T00:05:03;10.82;;;3.97;;
66521;SDS011;53349;53.538;8.584;2023-07-22T00:07:29;10.20;;;3.95;;
66521;SDS011;53349;53.538;8.584;2023-07-22T00:09:56;9.00;;;3.30;;
66521;SDS011;53349;53.538;8.584;2023-07-22T00:12:24;11.63;;;3.90;;
66521;SDS011;53349;53.538;8.584;2023-07-22T00:14:51;12.52;;;4.30;;
66521;SDS011;53349;53.538;8.584;2023-07-22T00:17:20;9.77;;;4.03;;
66521;SDS011;53349;53.538;8.584;2023-07-22T00:19:47;9.07;;;3.50;;
66521;SDS011;53349;53.538;8.584;2023-07-22T00:22:14;10.90;;;3.90;;
66521;SDS011;53349;53.538;8.584;2023-07-22T00:24:39;10.93;;;3.90;;
66521;SDS011;53349;53.538;8.584;2023-07-22T00:27:05;9.20;;;3.40;;
66521;SDS011;53349;53.538;8.584;2023-07-22T00:29:30;7.63;;;3.40;;
66521;SDS011;53349;53.538;8.584;2023-07-22T00:31:55;9.17;;;3.77;;
66521;SDS011;53349;53.538;8.584;2023-07-22T00:34:21;9.87;;;3.70;;
66521;SDS011;53349;53.538;8.584;2023-07-22T00:36:46;9.57;;;3.77;;
66521;SDS011;53349;53.538;8.584;2023-07-22T00:39:14;10.80;;;4.00;;
66521;SDS011;53349;53.538;8.584;2023-07-22T00:41:39;9.23;;;3.50;;
66521;SDS011;53349;53.538;8.584;2023-07-22T00:44:04;8.40;;;3.40;;
66521;SDS011;53349;53.538;8.584;2023-07-22T00:46:31;9.75;;;3.42;;
66521;SDS011;53349;53.538;8.584;2023-07-22T00:48:58;10.20;;;3.63;;
66521;SDS011;53349;53.538;8.584;2023-07-22T00:51:23;7.47;;;3.22;;
66521;SDS011;53349;53.538;8.584;2023-07-22T00:53:48;8.47;;;3.50;;
66521;SDS011;53349;53.538;8.584;2023-07-22T00:56:14;9.33;;;3.67;;
66521;SDS011;53349;53.538;8.584;2023-07-22T00:58:40;8.52;;;3.33;;
66521;SDS011;53349;53.538;8.584;2023-07-22T01:01:06;8.50;;;3.53;;
66521;SDS011;53349;53.538;8.584;2023-07-22T01:03:31;11.13;;;3.97;;
66521;SDS011;53349;53.538;8.584;2023-07-22T01:05:57;12.48;;;4.13;;
66521;SDS011;53349;53.538;8.584;2023-07-22T01:08:24;9.75;;;3.88;;
66521;SDS011;53349;53.538;8.584;2023-07-22T01:10:51;8.07;;;3.70;;
66521;SDS011;53349;53.538;8.584;2023-07-22T01:13:23;9.68;;;3.80;;
66521;SDS011;53349;53.538;8.584;2023-07-22T01:15:49;10.13;;;4.00;;
66521;SDS011;53349;53.538;8.584;2023-07-22T01:18:18;11.18;;;3.92;;
66521;SDS011;53349;53.538;8.584;2023-07-22T01:20:44;11.52;;;3.95;;
66521;SDS011;53349;53.538;8.584;2023-07-22T01:23:11;10.90;;;3.92;;
66521;SDS011;53349;53.538;8.584;2023-07-22T01:25:37;8.52;;;3.72;;
66521;SDS011;53349;53.538;8.584;2023-07-22T01:28:03;10.90;;;3.90;;
66521;SDS011;53349;53.538;8.584;2023-07-22T01:30:39;9.73;;;3.92;;
66521;SDS011;53349;53.538;8.584;2023-07-22T01:33:05;7.93;;;3.73;;
66521;SDS011;53349;53.538;8.584;2023-07-22T01:35:32;10.50;;;3.78;;
66521;SDS011;53349;53.538;8.584;2023-07-22T01:37:58;10.20;;;4.07;;
66521;SDS011;53349;53.538;8.584;2023-07-22T01:40:26;8.43;;;3.70;;
66521;SDS011;53349;53.538;8.584;2023-07-22T01:42:52;11.90;;;3.75;;
66521;SDS011;53349;53.538;8.584;2023-07-22T01:45:19;10.63;;;3.92;;
66521;SDS011;53349;53.538;8.584;2023-07-22T01:47:44;8.50;;;3.90;;
66521;SDS011;53349;53.538;8.584;2023-07-22T01:50:10;9.27;;;3.83;;
66521;SDS011;53349;53.538;8.584;2023-07-22T01:52:35;9.03;;;3.53;;
66521;SDS011;53349;53.538;8.584;2023-07-22T01:55:01;9.60;;;3.55;;
66521;SDS011;53349;53.538;8.584;2023-07-22T01:57:32;9.15;;;3.58;;
66521;SDS011;53349;53.538;8.584;2023-07-22T01:59:58;9.40;;;3.40;;
66521;SDS011;53349;53.538;8.584;2023-07-22T02:02:24;8.88;;;3.13;;
66521;SDS011;53349;53.538;8.584;2023-07-22T02:04:51;9.98;;;3.33;;
66521;SDS011;53349;53.538;8.584;2023-07-22T02:07:16;7.70;;;3.30;;
66521;SDS011;53349;53.538;8.584;2023-07-22T02:09:42;10.10;;;3.72;;
66521;SDS011;53349;53.538;8.584;2023-07-22T02:12:08;10.43;;;3.57;;
66521;SDS011;53349;53.538;8.584;2023-07-22T02:14:33;9.65;;;3.63;;
66521;SDS011;53349;53.538;8.584;2023-07-22T02:17:00;12.00;;;3.30;;
66521;SDS011;53349;53.538;8.584;2023-07-22T02:19:28;8.38;;;3.30;;
66521;SDS011;53349;53.538;8.584;2023-07-22T02:21:59;9.90;;;3.50;;
66521;SDS011;53349;53.538;8.584;2023-07-22T02:24:24;10.27;;;3.13;;
66521;SDS011;53349;53.538;8.584;2023-07-22T02:26:49;11.10;;;4.03;;
66521;SDS011;53349;53.538;8.584;2023-07-22T02:29:16;11.07;;;3.72;;
66521;SDS011;53349;53.538;8.584;2023-07-22T02:31:41;10.77;;;3.47;;
66521;SDS011;53349;53.538;8.584;2023-07-22T02:34:07;11.03;;;3.97;;
66521;SDS011;53349;53.538;8.584;2023-07-22T02:36:32;11.07;;;4.33;;
66521;SDS011;53349;53.538;8.584;2023-07-22T02:38:59;10.57;;;4.20;;
66521;SDS011;53349;53.538;8.584;2023-07-22T02:41:25;9.80;;;3.60;;
66521;SDS011;53349;53.538;8.584;2023-07-22T02:43:52;9.60;;;3.70;;
66521;SDS011;53349;53.538;8.584;2023-07-22T02:46:18;11.80;;;4.05;;
66521;SDS011;53349;53.538;8.584;2023-07-22T02:48:43;9.70;;;3.73;;
66521;SDS011;53349;53.538;8.584;2023-07-22T02:51:09;9.67;;;3.20;;
66521;SDS011;53349;53.538;8.584;2023-07-22T02:53:35;12.95;;;4.10;;
66521;SDS011;53349;53.538;8.584;2023-07-22T02:56:03;8.02;;;3.15;;
66521;SDS011;53349;53.538;8.584;2023-07-22T02:58:32;11.80;;;3.90;;
66521;SDS011;53349;53.538;8.584;2023-07-22T03:00:57;9.63;;;3.63;;
66521;SDS011;53349;53.538;8.584;2023-07-22T03:03:28;11.68;;;4.65;;
66521;SDS011;53349;53.538;8.584;2023-07-22T03:05:56;11.90;;;4.57;;
66521;SDS011;53349;53.538;8.584;2023-07-22T03:08:21;13.55;;;4.22;;
66521;SDS011;53349;53.538;8.584;2023-07-22T03:10:48;11.80;;;4.00;;
66521;SDS011;53349;53.538;8.584;2023-07-22T03:13:16;7.82;;;3.50;;
66521;SDS011;53349;53.538;8.584;2023-07-22T03:15:43;8.30;;;3.50;;
66521;SDS011;53349;53.538;8.584;2023-07-22T03:18:10;9.38;;;3.40;;
66521;SDS011;53349;53.538;8.584;2023-07-22T03:20:37;9.38;;;3.10;;
66521;SDS011;53349;53.538;8.584;2023-07-22T03:23:05;7.70;;;3.00;;
66521;SDS011;53349;53.538;8.584;2023-07-22T03:25:31;6.80;;;2.95;;
66521;SDS011;53349;53.538;8.584;2023-07-22T03:27:57;6.83;;;3.00;;
66521;SDS011;53349;53.538;8.584;2023-07-22T03:30:27;7.10;;;2.50;;
66521;SDS011;53349;53.538;8.584;2023-07-22T03:32:53;5.57;;;2.40;;
66521;SDS011;53349;53.538;8.584;2023-07-22T03:35:18;6.17;;;2.50;;
66521;SDS011;53349;53.538;8.584;2023-07-22T03:37:43;7.60;;;2.67;;
66521;SDS011;53349;53.538;8.584;2023-07-22T03:40:09;6.07;;;2.20;;
66521;SDS011;53349;53.538;8.584;2023-07-22T03:42:37;5.88;;;2.17;;
66521;SDS011;53349;53.538;8.584;2023-07-22T03:45:04;6.45;;;2.38;;
66521;SDS011;53349;53.538;8.584;2023-07-22T03:47:30;7.00;;;2.10;;
66521;SDS011;53349;53.538;8.584;2023-07-22T03:49:58;6.33;;;2.23;;
66521;SDS011;53349;53.538;8.584;2023-07-22T03:52:24;7.38;;;2.05;;
66521;SDS011;53349;53.538;8.584;2023-07-22T03:54:49;6.30;;;2.07;;
66521;SDS011;53349;53.538;8.584;2023-07-22T03:57:16;8.93;;;2.35;;
66521;SDS011;53349;53.538;8.584;2023-07-22T03:59:42;7.22;;;2.75;;
66521;SDS011;53349;53.538;8.584;2023-07-22T04:02:09;10.07;;;2.65;;
66521;SDS011;53349;53.538;8.584;2023-07-22T04:04:43;6.55;;;2.28;;
66521;SDS011;53349;53.538;8.584;2023-07-22T04:07:08;6.47;;;2.10;;
66521;SDS011;53349;53.538;8.584;2023-07-22T04:09:33;7.03;;;2.38;;
66521;SDS011;53349;53.538;8.584;2023-07-22T04:11:59;7.57;;;1.97;;
66521;SDS011;53349;53.538;8.584;2023-07-22T04:14:25;5.47;;;1.80;;
66521;SDS011;53349;53.538;8.584;2023-07-22T04:16:51;5.38;;;1.77;;
66521;SDS011;53349;53.538;8.584;2023-07-22T04:19:19;5.88;;;1.88;;
66521;SDS011;53349;53.538;8.584;2023-07-22T04:21:45;4.40;;;1.53;;
66521;SDS011;53349;53.538;8.584;2023-07-22T04:24:11;6.22;;;2.00;;
66521;SDS011;53349;53.538;8.584;2023-07-22T04:26:36;4.95;;;1.88;;
66521;SDS011;53349;53.538;8.584;2023-07-22T04:29:02;6.47;;;2.10;;
66521;SDS011;53349;53.538;8.584;2023-07-22T04:31:28;5.90;;;1.83;;
66521;SDS011;53349;53.538;8.584;2023-07-22T04:34:01;4.45;;;1.80;;
66521;SDS011;53349;53.538;8.584;2023-07-22T04:36:31;4.83;;;1.77;;
66521;SDS011;53349;53.538;8.584;2023-07-22T04:38:56;6.95;;;2.33;;
66521;SDS011;53349;53.538;8.584;2023-07-22T04:41:22;8.37;;;2.20;;
66521;SDS011;53349;53.538;8.584;2023-07-22T04:43:49;5.93;;;2.17;;
66521;SDS011;53349;53.538;8.584;2023-07-22T04:46:15;5.93;;;2.30;;
66521;SDS011;53349;53.538;8.584;2023-07-22T04:48:40;5.57;;;2.07;;
66521;SDS011;53349;53.538;8.584;2023-07-22T04:51:06;6.27;;;2.10;;
66521;SDS011;53349;53.538;8.584;2023-07-22T04:53:32;5.70;;;2.38;;
66521;SDS011;53349;53.538;8.584;2023-07-22T04:55:58;7.60;;;2.05;;
66521;SDS011;53349;53.538;8.584;2023-07-22T04:58:24;7.77;;;2.27;;
66521;SDS011;53349;53.538;8.584;2023-07-22T05:00:49;7.23;;;1.93;;
66521;SDS011;53349;53.538;8.584;2023-07-22T05:03:15;5.30;;;2.00;;
66521;SDS011;53349;53.538;8.584;2023-07-22T05:05:43;6.87;;;2.20;;
66521;SDS011;53349;53.538;8.584;2023-07-22T05:08:09;6.90;;;2.20;;
66521;SDS011;53349;53.538;8.584;2023-07-22T05:10:36;8.40;;;2.00;;
66521;SDS011;53349;53.538;8.584;2023-07-22T05:13:02;5.85;;;2.08;;
66521;SDS011;53349;53.538;8.584;2023-07-22T05:15:27;6.90;;;2.38;;
66521;SDS011;53349;53.538;8.584;2023-07-22T05:17:54;7.27;;;2.53;;
66521;SDS011;53349;53.538;8.584;2023-07-22T05:20:19;6.25;;;2.15;;
66521;SDS011;53349;53.538;8.584;2023-07-22T05:22:45;6.57;;;2.17;;
66521;SDS011;53349;53.538;8.584;2023-07-22T05:25:10;7.77;;;2.30;;
66521;SDS011;53349;53.538;8.584;2023-07-22T05:27:36;7.73;;;2.43;;
66521;SDS011;53349;53.538;8.584;2023-07-22T05:30:01;6.28;;;2.60;;
66521;SDS011;53349;53.538;8.584;2023-07-22T05:32:30;5.90;;;2.30;;
66521;SDS011;53349;53.538;8.584;2023-07-22T05:34:57;6.63;;;2.45;;
66521;SDS011;53349;53.538;8.584;2023-07-22T05:37:23;5.40;;;2.10;;
66521;SDS011;53349;53.538;8.584;2023-07-22T05:39:49;6.55;;;2.13;;
66521;SDS011;53349;53.538;8.584;2023-07-22T05:42:15;7.00;;;2.38;;
66521;SDS011;53349;53.538;8.584;2023-07-22T05:44:41;6.05;;;1.70;;
66521;SDS011;53349;53.538;8.584;2023-07-22T05:47:07;5.87;;;1.97;;
66521;SDS011;53349;53.538;8.584;2023-07-22T05:49:34;5.87;;;2.23;;
66521;SDS011;53349;53.538;8.584;2023-07-22T05:52:00;5.43;;;2.10;;
66521;SDS011;53349;53.538;8.584;2023-07-22T05:54:25;4.57;;;1.67;;
66521;SDS011;53349;53.538;8.584;2023-07-22T05:56:51;5.57;;;1.93;;
66521;SDS011;53349;53.538;8.584;2023-07-22T05:59:16;5.73;;;2.10;;
66521;SDS011;53349;53.538;8.584;2023-07-22T06:01:42;4.97;;;1.70;;
66521;SDS011;53349;53.538;8.584;2023-07-22T06:04:07;5.30;;;1.80;;
66521;SDS011;53349;53.538;8.584;2023-07-22T06:06:33;3.43;;;1.50;;
66521;SDS011;53349;53.538;8.584;2023-07-22T06:08:58;5.30;;;1.70;;
66521;SDS011;53349;53.538;8.584;2023-07-22T06:11:26;6.37;;;1.90;;
66521;SDS011;53349;53.538;8.584;2023-07-22T06:13:53;5.60;;;1.70;;
66521;SDS011;53349;53.538;8.584;2023-07-22T06:16:21;4.47;;;1.60;;
66521;SDS011;53349;53.538;8.584;2023-07-22T06:18:49;4.75;;;1.75;;
66521;SDS011;53349;53.538;8.584;2023-07-22T06:21:16;6.40;;;2.42;;
66521;SDS011;53349;53.538;8.584;2023-07-22T06:23:41;5.03;;;1.90;;
66521;SDS011;53349;53.538;8.584;2023-07-22T06:26:07;5.43;;;2.07;;
66521;SDS011;53349;53.538;8.584;2023-07-22T06:28:32;5.10;;;1.80;;
66521;SDS011;53349;53.538;8.584;2023-07-22T06:30:59;5.97;;;2.08;;
66521;SDS011;53349;53.538;8.584;2023-07-22T06:33:24;5.73;;;2.17;;
66521;SDS011;53349;53.538;8.584;2023-07-22T06:35:54;4.88;;;1.98;;
66521;SDS011;53349;53.538;8.584;2023-07-22T06:38:20;5.60;;;2.08;;
66521;SDS011;53349;53.538;8.584;2023-07-22T06:40:48;5.43;;;1.90;;
66521;SDS011;53349;53.538;8.584;2023-07-22T06:43:20;5.82;;;1.83;;
66521;SDS011;53349;53.538;8.584;2023-07-22T06:45:45;4.47;;;1.73;;
66521;SDS011;53349;53.538;8.584;2023-07-22T06:48:12;4.82;;;2.00;;
66521;SDS011;53349;53.538;8.584;2023-07-22T06:50:37;6.23;;;2.10;;
66521;SDS011;53349;53.538;8.584;2023-07-22T06:53:03;8.73;;;2.28;;
66521;SDS011;53349;53.538;8.584;2023-07-22T06:55:29;6.23;;;1.97;;
66521;SDS011;53349;53.538;8.584;2023-07-22T06:57:57;6.27;;;1.80;;
66521;SDS011;53349;53.538;8.584;2023-07-22T07:00:26;7.40;;;2.10;;
66521;SDS011;53349;53.538;8.584;2023-07-22T07:02:52;5.72;;;1.83;;
66521;SDS011;53349;53.538;8.584;2023-07-22T07:05:18;5.47;;;1.80;;
66521;SDS011;53349;53.538;8.584;2023-07-22T07:07:43;6.27;;;2.17;;
66521;SDS011;53349;53.538;8.584;2023-07-22T07:10:08;5.27;;;2.00;;
66521;SDS011;53349;53.538;8.584;2023-07-22T07:12:34;4.93;;;1.50;;
66521;SDS011;53349;53.538;8.584;2023-07-22T07:15:00;4.32;;;1.67;;
66521;SDS011;53349;53.538;8.584;2023-07-22T07:17:26;6.23;;;1.50;;
66521;SDS011;53349;53.538;8.584;2023-07-22T07:19:53;4.10;;;1.60;;
66521;SDS011;53349;53.538;8.584;2023-07-22T07:22:18;6.80;;;1.60;;
66521;SDS011;53349;53.538;8.584;2023-07-22T07:24:44;3.80;;;1.60;;
66521;SDS011;53349;53.538;8.584;2023-07-22T07:27:09;4.20;;;1.50;;
66521;SDS011;53349;53.538;8.584;2023-07-22T07:29:36;6.07;;;1.60;;
66521;SDS011;53349;53.538;8.584;2023-07-22T07:32:01;4.57;;;1.50;;
66521;SDS011;53349;53.538;8.584;2023-07-22T07:34:26;4.23;;;1.23;;
66521;SDS011;53349;53.538;8.584;2023-07-22T07:36:52;4.87;;;1.60;;
66521;SDS011;53349;53.538;8.584;2023-07-22T07:39:17;4.80;;;1.60;;
66521;SDS011;53349;53.538;8.584;2023-07-22T07:41:43;4.53;;;1.40;;
66521;SDS011;53349;53.538;8.584;2023-07-22T07:44:09;5.30;;;1.40;;
66521;SDS011;53349;53.538;8.584;2023-07-22T07:46:37;4.63;;;1.60;;
66521;SDS011;53349;53.538;8.584;2023-07-22T07:49:02;5.25;;;1.70;;
66521;SDS011;53349;53.538;8.584;2023-07-22T07:51:29;4.17;;;1.43;;
66521;SDS011;53349;53.538;8.584;2023-07-22T07:53:56;3.85;;;1.40;;
66521;SDS011;53349;53.538;8.584;2023-07-22T07:56:24;3.25;;;1.10;;
66521;SDS011;53349;53.538;8.584;2023-07-22T07:58:53;4.18;;;1.00;;
66521;SDS011;53349;53.538;8.584;2023-07-22T08:01:20;3.10;;;1.00;;
66521;SDS011;53349;53.538;8.584;2023-07-22T08:03:49;3.63;;;1.00;;
66521;SDS011;53349;53.538;8.584;2023-07-22T08:06:16;4.22;;;1.30;;
66521;SDS011;53349;53.538;8.584;2023-07-22T08:08:41;3.00;;;1.17;;
66521;SDS011;53349;53.538;8.584;2023-07-22T08:11:11;4.47;;;1.00;;
66521;SDS011;53349;53.538;8.584;2023-07-22T08:13:38;5.30;;;1.10;;
66521;SDS011;53349;53.538;8.584;2023-07-22T08:16:05;4.38;;;0.93;;
66521;SDS011;53349;53.538;8.584;2023-07-22T08:18:37;5.20;;;1.20;;
66521;SDS011;53349;53.538;8.584;2023-07-22T08:21:03;3.17;;;1.13;;
66521;SDS011;53349;53.538;8.584;2023-07-22T08:23:29;3.42;;;1.40;;
66521;SDS011;53349;53.538;8.584;2023-07-22T08:25:55;5.18;;;1.40;;
66521;SDS011;53349;53.538;8.584;2023-07-22T08:28:21;4.30;;;1.20;;
66521;SDS011;53349;53.538;8.584;2023-07-22T08:30:47;4.75;;;1.30;;
66521;SDS011;53349;53.538;8.584;2023-07-22T08:33:15;4.43;;;1.50;;
66521;SDS011;53349;53.538;8.584;2023-07-22T08:35:41;3.17;;;1.10;;
66521;SDS011;53349;53.538;8.584;2023-07-22T08:38:07;3.03;;;1.17;;
66521;SDS011;53349;53.538;8.584;2023-07-22T08:40:36;4.53;;;1.37;;
66521;SDS011;53349;53.538;8.584;2023-07-22T08:43:04;4.22;;;1.50;;
66521;SDS011;53349;53.538;8.584;2023-07-22T08:45:32;4.40;;;1.50;;
66521;SDS011;53349;53.538;8.584;2023-07-22T08:47:59;3.58;;;1.20;;
66521;SDS011;53349;53.538;8.584;2023-07-22T08:50:26;4.50;;;1.40;;
66521;SDS011;53349;53.538;8.584;2023-07-22T08:52:58;5.05;;;1.30;;
66521;SDS011;53349;53.538;8.584;2023-07-22T08:55:25;4.50;;;1.40;;
66521;SDS011;53349;53.538;8.584;2023-07-22T08:57:52;4.17;;;1.30;;
66521;SDS011;53349;53.538;8.584;2023-07-22T09:00:18;4.63;;;1.77;;
66521;SDS011;53349;53.538;8.584;2023-07-22T09:02:45;4.63;;;1.92;;
66521;SDS011;53349;53.538;8.584;2023-07-22T09:05:16;3.60;;;1.40;;
66521;SDS011;53349;53.538;8.584;2023-07-22T09:07:43;4.82;;;1.30;;
66521;SDS011;53349;53.538;8.584;2023-07-22T09:10:12;4.40;;;1.50;;
66521;SDS011;53349;53.538;8.584;2023-07-22T09:12:41;4.43;;;1.58;;
66521;SDS011;53349;53.538;8.584;2023-07-22T09:15:10;3.55;;;1.50;;
66521;SDS011;53349;53.538;8.584;2023-07-22T09:17:37;4.95;;;1.52;;
66521;SDS011;53349;53.538;8.584;2023-07-22T09:20:03;4.67;;;1.70;;
66521;SDS011;53349;53.538;8.584;2023-07-22T09:22:31;4.80;;;1.70;;
66521;SDS011;53349;53.538;8.584;2023-07-22T09:27:42;5.05;;;2.20;;
66521;SDS011;53349;53.538;8.584;2023-07-22T09:33:21;6.00;;;2.80;;
66521;SDS011;53349;53.538;8.584;2023-07-22T09:35:48;5.55;;;2.70;;
66521;SDS011;53349;53.538;8.584;2023-07-22T09:38:24;5.57;;;2.92;;
66521;SDS011;53349;53.538;8.584;2023-07-22T09:40:52;6.18;;;3.00;;
66521;SDS011;53349;53.538;8.584;2023-07-22T09:43:18;7.15;;;3.20;;
66521;SDS011;53349;53.538;8.584;2023-07-22T09:45:46;6.33;;;2.90;;
66521;SDS011;53349;53.538;8.584;2023-07-22T09:48:12;5.97;;;2.97;;
66521;SDS011;53349;53.538;8.584;2023-07-22T09:50:38;6.77;;;3.40;;
66521;SDS011;53349;53.538;8.584;2023-07-22T09:53:05;6.22;;;3.15;;
66521;SDS011;53349;53.538;8.584;2023-07-22T09:55:34;6.63;;;3.22;;
66521;SDS011;53349;53.538;8.584;2023-07-22T09:58:03;7.00;;;3.47;;
66521;SDS011;53349;53.538;8.584;2023-07-22T10:00:32;6.85;;;3.50;;
66521;SDS011;53349;53.538;8.584;2023-07-22T10:02:58;8.25;;;3.30;;
66521;SDS011;53349;53.538;8.584;2023-07-22T10:05:27;6.88;;;3.38;;
66521;SDS011;53349;53.538;8.584;2023-07-22T10:07:53;7.27;;;3.30;;
66521;SDS011;53349;53.538;8.584;2023-07-22T10:10:21;6.97;;;3.70;;
66521;SDS011;53349;53.538;8.584;2023-07-22T10:12:59;6.68;;;3.35;;
66521;SDS011;53349;53.538;8.584;2023-07-22T10:15:27;6.10;;;3.57;;
66521;SDS011;53349;53.538;8.584;2023-07-22T10:17:57;8.05;;;3.22;;
66521;SDS011;53349;53.538;8.584;2023-07-22T10:20:23;7.00;;;3.30;;
66521;SDS011;53349;53.538;8.584;2023-07-22T10:22:51;7.22;;;3.80;;
66521;SDS011;53349;53.538;8.584;2023-07-22T10:25:17;6.70;;;3.60;;
66521;SDS011;53349;53.538;8.584;2023-07-22T10:27:44;6.87;;;3.80;;
66521;SDS011;53349;53.538;8.584;2023-07-22T10:30:13;6.38;;;3.35;;
66521;SDS011;53349;53.538;8.584;2023-07-22T10:32:40;8.02;;;3.78;;
66521;SDS011;53349;53.538;8.584;2023-07-22T10:38:16;8.02;;;3.60;;
66521;SDS011;53349;53.538;8.584;2023-07-22T10:41:00;6.83;;;3.40;;
66521;SDS011;53349;53.538;8.584;2023-07-22T10:46:31;8.00;;;4.00;;
66521;SDS011;53349;53.538;8.584;2023-07-22T10:49:10;7.78;;;3.70;;
66521;SDS011;53349;53.538;8.584;2023-07-22T10:51:40;8.38;;;3.90;;
66521;SDS011;53349;53.538;8.584;2023-07-22T10:54:12;8.27;;;4.30;;
66521;SDS011;53349;53.538;8.584;2023-07-22T10:56:40;9.40;;;4.38;;
66521;SDS011;53349;53.538;8.584;2023-07-22T10:59:12;8.23;;;4.20;;
66521;SDS011;53349;53.538;8.584;2023-07-22T11:01:43;8.60;;;3.88;;
66521;SDS011;53349;53.538;8.584;2023-07-22T11:06:35;11.37;;;3.90;;
66521;SDS011;53349;53.538;8.584;2023-07-22T11:09:01;9.95;;;4.75;;
66521;SDS011;53349;53.538;8.584;2023-07-22T11:11:39;8.47;;;3.90;;
66521;SDS011;53349;53.538;8.584;2023-07-22T11:14:20;7.72;;;3.80;;
66521;SDS011;53349;53.538;8.584;2023-07-22T11:16:47;6.43;;;3.50;;
66521;SDS011;53349;53.538;8.584;2023-07-22T11:19:16;8.13;;;3.80;;
66521;SDS011;53349;53.538;8.584;2023-07-22T11:21:46;8.27;;;3.75;;
66521;SDS011;53349;53.538;8.584;2023-07-22T11:24:12;6.97;;;3.80;;
66521;SDS011;53349;53.538;8.584;2023-07-22T11:26:38;9.55;;;4.05;;
66521;SDS011;53349;53.538;8.584;2023-07-22T11:29:05;9.27;;;3.90;;
66521;SDS011;53349;53.538;8.584;2023-07-22T11:31:35;8.73;;;3.90;;
66521;SDS011;53349;53.538;8.584;2023-07-22T11:34:04;7.67;;;3.73;;
66521;SDS011;53349;53.538;8.584;2023-07-22T11:36:30;7.75;;;3.97;;
66521;SDS011;53349;53.538;8.584;2023-07-22T11:39:05;7.97;;;3.95;;
66521;SDS011;53349;53.538;8.584;2023-07-22T11:41:36;8.45;;;4.05;;
66521;SDS011;53349;53.538;8.584;2023-07-22T11:44:02;8.27;;;3.90;;
66521;SDS011;53349;53.538;8.584;2023-07-22T11:46:30;9.63;;;4.07;;
66521;SDS011;53349;53.538;8.584;2023-07-22T11:48:55;7.45;;;3.78;;
66521;SDS011;53349;53.538;8.584;2023-07-22T11:51:22;8.23;;;3.90;;
66521;SDS011;53349;53.538;8.584;2023-07-22T11:53:49;6.90;;;3.40;;
66521;SDS011;53349;53.538;8.584;2023-07-22T11:56:20;7.18;;;3.33;;
66521;SDS011;53349;53.538;8.584;2023-07-22T11:58:51;8.25;;;3.50;;
66521;SDS011;53349;53.538;8.584;2023-07-22T12:01:18;7.50;;;3.33;;
66521;SDS011;53349;53.538;8.584;2023-07-22T12:03:44;7.97;;;3.70;;
66521;SDS011;53349;53.538;8.584;2023-07-22T12:06:09;8.63;;;3.65;;
66521;SDS011;53349;53.538;8.584;2023-07-22T12:08:48;7.75;;;4.30;;
66521;SDS011;53349;53.538;8.584;2023-07-22T12:11:20;11.93;;;4.23;;
66521;SDS011;53349;53.538;8.584;2023-07-22T12:14:09;9.20;;;3.58;;
66521;SDS011;53349;53.538;8.584;2023-07-22T12:16:39;8.30;;;3.00;;
66521;SDS011;53349;53.538;8.584;2023-07-22T12:19:06;8.93;;;2.92;;
66521;SDS011;53349;53.538;8.584;2023-07-22T12:21:33;9.68;;;3.63;;
66521;SDS011;53349;53.538;8.584;2023-07-22T12:23:58;8.27;;;3.27;;
66521;SDS011;53349;53.538;8.584;2023-07-22T12:26:24;9.13;;;3.80;;
66521;SDS011;53349;53.538;8.584;2023-07-22T12:28:51;7.50;;;3.50;;
66521;SDS011;53349;53.538;8.584;2023-07-22T12:31:18;6.20;;;2.53;;
66521;SDS011;53349;53.538;8.584;2023-07-22T12:33:46;7.37;;;3.47;;
66521;SDS011;53349;53.538;8.584;2023-07-22T12:36:12;7.55;;;2.80;;
66521;SDS011;53349;53.538;8.584;2023-07-22T12:38:39;5.53;;;2.67;;
66521;SDS011;53349;53.538;8.584;2023-07-22T12:41:04;5.70;;;2.83;;
66521;SDS011;53349;53.538;8.584;2023-07-22T12:43:31;5.68;;;3.22;;
66521;SDS011;53349;53.538;8.584;2023-07-22T12:45:56;6.43;;;3.40;;
66521;SDS011;53349;53.538;8.584;2023-07-22T12:48:24;7.60;;;3.40;;
66521;SDS011;53349;53.538;8.584;2023-07-22T12:50:50;6.40;;;3.10;;
66521;SDS011;53349;53.538;8.584;2023-07-22T12:53:16;6.25;;;3.22;;
66521;SDS011;53349;53.538;8.584;2023-07-22T12:55:41;7.10;;;3.40;;
66521;SDS011;53349;53.538;8.584;2023-07-22T12:58:07;6.90;;;3.03;;
66521;SDS011;53349;53.538;8.584;2023-07-22T13:00:34;9.43;;;3.72;;
66521;SDS011;53349;53.538;8.584;2023-07-22T13:03:01;7.73;;;3.80;;
66521;SDS011;53349;53.538;8.584;2023-07-22T13:05:26;9.23;;;4.47;;
66521;SDS011;53349;53.538;8.584;2023-07-22T13:07:52;8.98;;;4.15;;
66521;SDS011;53349;53.538;8.584;2023-07-22T13:10:19;8.27;;;3.80;;
66521;SDS011;53349;53.538;8.584;2023-07-22T13:12:44;6.97;;;3.65;;
66521;SDS011;53349;53.538;8.584;2023-07-22T13:15:13;7.13;;;3.73;;
66521;SDS011;53349;53.538;8.584;2023-07-22T13:17:44;8.50;;;3.80;;
66521;SDS011;53349;53.538;8.584;2023-07-22T13:20:10;10.10;;;3.70;;
66521;SDS011;53349;53.538;8.584;2023-07-22T13:22:36;8.35;;;3.78;;
66521;SDS011;53349;53.538;8.584;2023-07-22T13:25:02;6.90;;;3.85;;
66521;SDS011;53349;53.538;8.584;2023-07-22T13:27:29;7.30;;;3.70;;
66521;SDS011;53349;53.538;8.584;2023-07-22T13:29:55;6.05;;;3.30;;
66521;SDS011;53349;53.538;8.584;2023-07-22T13:32:23;6.00;;;3.63;;
66521;SDS011;53349;53.538;8.584;2023-07-22T13:34:48;8.00;;;3.42;;
66521;SDS011;53349;53.538;8.584;2023-07-22T13:37:15;7.17;;;3.00;;
66521;SDS011;53349;53.538;8.584;2023-07-22T13:39:40;6.63;;;3.33;;
66521;SDS011;53349;53.538;8.584;2023-07-22T13:42:05;7.47;;;4.00;;
66521;SDS011;53349;53.538;8.584;2023-07-22T13:44:31;8.53;;;4.03;;
66521;SDS011;53349;53.538;8.584;2023-07-22T13:46:56;7.93;;;4.50;;
66521;SDS011;53349;53.538;8.584;2023-07-22T13:49:23;8.45;;;4.75;;
66521;SDS011;53349;53.538;8.584;2023-07-22T13:51:49;9.48;;;4.55;;
66521;SDS011;53349;53.538;8.584;2023-07-22T13:54:14;7.30;;;3.93;;
66521;SDS011;53349;53.538;8.584;2023-07-22T13:56:43;8.35;;;4.32;;
66521;SDS011;53349;53.538;8.584;2023-07-22T13:59:15;6.73;;;3.00;;
66521;SDS011;53349;53.538;8.584;2023-07-22T14:01:40;6.50;;;3.03;;
66521;SDS011;53349;53.538;8.584;2023-07-22T14:04:05;8.35;;;3.00;;
66521;SDS011;53349;53.538;8.584;2023-07-22T14:06:32;5.83;;;2.77;;
66521;SDS011;53349;53.538;8.584;2023-07-22T14:08:58;6.57;;;3.20;;
66521;SDS011;53349;53.538;8.584;2023-07-22T14:11:24;6.90;;;3.13;;
66521;SDS011;53349;53.538;8.584;2023-07-22T14:13:52;7.00;;;3.38;;
66521;SDS011;53349;53.538;8.584;2023-07-22T14:16:18;6.37;;;3.00;;
66521;SDS011;53349;53.538;8.584;2023-07-22T14:18:45;6.82;;;3.28;;
66521;SDS011;53349;53.538;8.584;2023-07-22T14:21:14;7.55;;;3.40;;
66521;SDS011;53349;53.538;8.584;2023-07-22T14:23:43;5.95;;;3.35;;
66521;SDS011;53349;53.538;8.584;2023-07-22T14:26:08;7.63;;;3.63;;
66521;SDS011;53349;53.538;8.584;2023-07-22T14:28:36;6.72;;;3.47;;
66521;SDS011;53349;53.538;8.584;2023-07-22T14:31:03;8.23;;;3.40;;
66521;SDS011;53349;53.538;8.584;2023-07-22T14:33:28;5.97;;;3.20;;
66521;SDS011;53349;53.538;8.584;2023-07-22T14:35:55;6.27;;;3.30;;
66521;SDS011;53349;53.538;8.584;2023-07-22T14:38:22;7.15;;;3.38;;
66521;SDS011;53349;53.538;8.584;2023-07-22T14:40:50;6.88;;;3.38;;
66521;SDS011;53349;53.538;8.584;2023-07-22T14:43:16;7.32;;;3.75;;
66521;SDS011;53349;53.538;8.584;2023-07-22T14:45:42;5.97;;;3.47;;
66521;SDS011;53349;53.538;8.584;2023-07-22T14:48:08;6.32;;;3.78;;
66521;SDS011;53349;53.538;8.584;2023-07-22T14:50:33;9.90;;;4.30;;
66521;SDS011;53349;53.538;8.584;2023-07-22T14:52:59;8.80;;;4.40;;
66521;SDS011;53349;53.538;8.584;2023-07-22T14:55:31;7.30;;;4.60;;
66521;SDS011;53349;53.538;8.584;2023-07-22T14:57:56;8.33;;;4.87;;